createdAt,value
2018-04-11T00:01:47.500Z,5.77
2018-04-11T00:04:13.238Z,6.40
2018-04-11T00:06:38.988Z,6.47
2018-04-11T00:09:04.757Z,6.23
2018-04-11T00:11:30.525Z,6.60
2018-04-11T00:13:56.261Z,6.07
2018-04-11T00:16:22.001Z,6.60
2018-04-11T00:18:47.758Z,6.10
2018-04-11T00:21:13.502Z,5.83
2018-04-11T00:23:39.258Z,6.80
2018-04-11T00:26:05.017Z,6.40
2018-04-11T00:28:30.781Z,6.60
2018-04-11T00:30:56.525Z,6.60
2018-04-11T00:33:22.268Z,5.13
2018-04-11T00:35:48.026Z,5.93
2018-04-11T00:38:13.787Z,6.47
2018-04-11T00:40:39.533Z,5.80
2018-04-11T00:43:05.288Z,6.80
2018-04-11T00:45:31.045Z,6.13
2018-04-11T00:47:56.825Z,6.00
2018-04-11T00:50:22.584Z,5.80
2018-04-11T00:53:00.887Z,6.73
2018-04-11T00:55:26.635Z,5.75
2018-04-11T00:57:52.404Z,6.63
2018-04-11T01:00:18.174Z,6.47
2018-04-11T01:02:43.936Z,6.00
2018-04-11T01:05:09.679Z,6.10
2018-04-11T01:07:35.428Z,6.73
2018-04-11T01:10:01.187Z,5.87
2018-04-11T01:12:26.956Z,5.73
2018-04-11T01:14:52.728Z,6.03
2018-04-11T01:17:18.514Z,7.30
2018-04-11T01:19:44.257Z,5.70
2018-04-11T01:22:10.015Z,6.00
2018-04-11T01:24:35.792Z,5.47
2018-04-11T01:27:01.548Z,6.30
2018-04-11T01:29:27.319Z,6.73
2018-04-11T01:31:53.076Z,6.03
2018-04-11T01:34:18.846Z,6.37
2018-04-11T01:36:44.596Z,5.53
2018-04-11T01:39:10.362Z,6.03
2018-04-11T01:41:36.133Z,5.87
2018-04-11T01:44:01.893Z,6.33
2018-04-11T01:46:27.650Z,6.40
2018-04-11T01:48:53.400Z,6.27
2018-04-11T01:51:19.151Z,6.03
2018-04-11T01:53:44.912Z,6.07
2018-04-11T01:56:10.648Z,6.57
2018-04-11T01:58:36.423Z,5.93
2018-04-11T02:01:02.184Z,5.83
2018-04-11T02:03:27.950Z,6.30
2018-04-11T02:05:53.700Z,6.77
2018-04-11T02:08:19.448Z,5.90
2018-04-11T02:10:45.198Z,5.93
2018-04-11T02:13:10.953Z,6.33
2018-04-11T02:15:36.732Z,5.40
2018-04-11T02:18:02.505Z,5.93
2018-04-11T02:20:28.259Z,6.10
2018-04-11T02:22:53.995Z,5.67
2018-04-11T02:25:19.755Z,6.50
2018-04-11T02:27:45.538Z,5.90
2018-04-11T02:30:11.280Z,5.70
2018-04-11T02:32:37.027Z,5.97
2018-04-11T02:35:02.776Z,5.67
2018-04-11T02:37:28.529Z,6.30
2018-04-11T02:39:54.290Z,5.70
2018-04-11T02:42:20.029Z,5.83
2018-04-11T02:44:45.794Z,6.47
2018-04-11T02:47:11.560Z,5.43
2018-04-11T02:49:37.317Z,6.17
2018-04-11T02:52:03.071Z,6.27
2018-04-11T02:54:28.814Z,6.07
2018-04-11T02:56:54.548Z,6.30
2018-04-11T02:59:20.290Z,6.10
2018-04-11T03:01:46.033Z,6.30
2018-04-11T03:04:11.796Z,6.70
2018-04-11T03:06:37.566Z,5.80
2018-04-11T03:09:03.325Z,6.10
2018-04-11T03:11:29.085Z,6.03
2018-04-11T03:13:54.832Z,5.83
2018-04-11T03:16:20.582Z,6.30
2018-04-11T03:18:46.320Z,6.30
2018-04-11T03:21:12.069Z,5.83
2018-04-11T03:23:37.817Z,6.00
2018-04-11T03:26:03.560Z,6.20
2018-04-11T03:28:29.309Z,6.03
2018-04-11T03:30:55.051Z,6.40
2018-04-11T03:33:20.828Z,6.80
2018-04-11T03:35:46.577Z,5.83
2018-04-11T03:38:12.318Z,6.80
2018-04-11T03:40:38.090Z,6.40
2018-04-11T03:43:03.824Z,7.13
2018-04-11T03:45:29.579Z,7.30
2018-04-11T03:47:55.327Z,7.03
2018-04-11T03:50:21.061Z,6.20
2018-04-11T03:52:46.798Z,6.37
2018-04-11T03:55:12.544Z,6.67
2018-04-11T03:57:38.281Z,5.90
2018-04-11T04:00:04.035Z,7.30
2018-04-11T04:02:29.769Z,6.20
2018-04-11T04:04:55.524Z,6.50
2018-04-11T04:07:21.280Z,7.00
2018-04-11T04:09:47.038Z,6.50
2018-04-11T04:12:12.785Z,6.30
2018-04-11T04:14:50.958Z,6.40
2018-04-11T04:17:29.126Z,6.95
2018-04-11T04:20:07.296Z,5.40
2018-04-11T04:22:33.028Z,6.45
2018-04-11T04:24:58.764Z,6.30
2018-04-11T04:27:24.539Z,6.90
2018-04-11T04:29:50.261Z,6.57
2018-04-11T04:32:15.989Z,7.20
2018-04-11T04:34:41.727Z,6.60
2018-04-11T04:37:07.482Z,7.07
2018-04-11T04:39:33.228Z,6.80
2018-04-11T04:41:58.956Z,7.40
2018-04-11T04:44:24.697Z,6.37
2018-04-11T04:46:50.440Z,6.80
2018-04-11T04:49:16.189Z,6.60
2018-04-11T04:51:41.943Z,7.10
2018-04-11T04:54:07.667Z,6.60
2018-04-11T04:56:33.417Z,7.87
2018-04-11T04:58:59.157Z,7.63
2018-04-11T05:01:24.908Z,7.50
2018-04-11T05:03:50.654Z,6.67
2018-04-11T05:06:16.392Z,6.33
2018-04-11T05:08:42.122Z,6.90
2018-04-11T05:11:07.853Z,6.80
2018-04-11T05:13:33.576Z,7.07
2018-04-11T05:15:59.329Z,7.70
2018-04-11T05:18:25.093Z,6.97
2018-04-11T05:20:50.832Z,6.40
2018-04-11T05:23:16.585Z,6.83
2018-04-11T05:25:42.357Z,7.27
2018-04-11T05:28:08.113Z,7.07
2018-04-11T05:30:33.852Z,6.63
2018-04-11T05:32:59.576Z,7.17
2018-04-11T05:35:25.332Z,7.43
2018-04-11T05:37:51.053Z,7.97
2018-04-11T05:40:16.805Z,7.60
2018-04-11T05:42:42.523Z,7.27
2018-04-11T05:45:08.272Z,7.63
2018-04-11T05:47:34.005Z,6.90
2018-04-11T05:49:59.741Z,7.03
2018-04-11T05:52:25.489Z,7.90
2018-04-11T05:54:51.235Z,8.20
2018-04-11T05:57:16.973Z,7.80
2018-04-11T05:59:42.710Z,7.87
2018-04-11T06:02:08.448Z,7.63
2018-04-11T06:04:34.169Z,8.17
2018-04-11T06:06:59.917Z,8.60
2018-04-11T06:09:25.653Z,7.57
2018-04-11T06:11:51.407Z,8.57
2018-04-11T06:14:17.149Z,8.47
2018-04-11T06:16:42.896Z,8.47
2018-04-11T06:19:08.641Z,9.50
2018-04-11T06:21:34.377Z,8.90
2018-04-11T06:24:00.116Z,9.13
2018-04-11T06:28:58.457Z,9.93
2018-04-11T06:31:24.208Z,8.77
2018-04-11T06:33:50.026Z,8.43
2018-04-11T06:36:15.724Z,9.93
2018-04-11T06:38:41.464Z,9.10
2018-04-11T06:41:07.223Z,8.47
2018-04-11T06:43:32.970Z,9.40
2018-04-11T06:45:58.733Z,8.83
2018-04-11T06:48:24.469Z,8.33
2018-04-11T06:50:50.224Z,9.00
2018-04-11T06:53:15.996Z,8.37
2018-04-11T06:55:41.756Z,8.50
2018-04-11T06:58:07.516Z,8.57
2018-04-11T07:00:33.276Z,8.77
2018-04-11T07:02:59.029Z,8.30
2018-04-11T07:05:24.773Z,8.00
2018-04-11T07:07:50.533Z,7.27
2018-04-11T07:10:16.257Z,7.73
2018-04-11T07:12:42.037Z,8.27
2018-04-11T07:15:07.797Z,8.60
2018-04-11T07:17:33.544Z,8.33
2018-04-11T07:19:59.331Z,8.60
2018-04-11T07:22:25.065Z,7.90
2018-04-11T07:24:50.829Z,6.60
2018-04-11T07:27:16.585Z,7.60
2018-04-11T07:29:42.317Z,8.13
2018-04-11T07:32:08.062Z,7.57
2018-04-11T07:34:33.822Z,8.50
2018-04-11T07:36:59.580Z,7.67
2018-04-11T07:39:25.320Z,7.57
2018-04-11T07:41:51.071Z,7.30
2018-04-11T07:44:16.809Z,7.70
2018-04-11T07:46:42.557Z,7.33
2018-04-11T07:49:08.302Z,7.53
2018-04-11T07:51:34.129Z,7.33
2018-04-11T07:53:59.864Z,8.00
2018-04-11T07:56:25.618Z,7.83
2018-04-11T07:58:51.356Z,8.73
2018-04-11T08:01:17.100Z,8.73
2018-04-11T08:03:42.852Z,8.00
2018-04-11T08:06:08.617Z,8.43
2018-04-11T08:08:34.350Z,8.10
2018-04-11T08:11:00.096Z,8.17
2018-04-11T08:13:25.865Z,8.73
2018-04-11T08:15:51.610Z,8.20
2018-04-11T08:18:17.368Z,8.23
2018-04-11T08:20:43.117Z,9.07
2018-04-11T08:23:08.867Z,8.97
2018-04-11T08:25:34.602Z,8.93
2018-04-11T08:28:00.344Z,10.20
2018-04-11T08:30:26.079Z,9.47
2018-04-11T08:32:51.840Z,9.67
2018-04-11T08:35:17.592Z,9.13
2018-04-11T08:37:43.353Z,8.93
2018-04-11T08:40:09.108Z,10.63
2018-04-11T08:42:34.860Z,9.07
2018-04-11T08:45:00.630Z,9.43
2018-04-11T08:47:26.504Z,9.97
2018-04-11T08:49:52.178Z,8.50
2018-04-11T08:52:17.938Z,10.30
2018-04-11T08:54:43.693Z,8.93
2018-04-11T08:57:09.436Z,8.93
2018-04-11T08:59:35.167Z,9.13
2018-04-11T09:02:00.913Z,9.63
2018-04-11T09:04:26.649Z,9.97
2018-04-11T09:06:52.401Z,9.20
2018-04-11T09:09:18.153Z,10.00
2018-04-11T09:11:43.905Z,9.67
2018-04-11T09:14:09.646Z,11.43
2018-04-11T09:16:35.377Z,11.63
2018-04-11T09:19:01.140Z,12.60
2018-04-11T09:21:26.881Z,11.37
2018-04-11T09:23:52.624Z,12.33
2018-04-11T09:26:18.357Z,12.80
2018-04-11T09:28:44.105Z,11.97
2018-04-11T09:31:09.832Z,12.77
2018-04-11T09:33:35.576Z,13.37
2018-04-11T09:36:01.329Z,12.27
2018-04-11T09:38:27.093Z,13.93
2018-04-11T09:40:52.812Z,14.23
2018-04-11T09:43:18.565Z,13.53
2018-04-11T09:45:44.340Z,14.53
2018-04-11T09:48:10.089Z,13.90
2018-04-11T09:50:35.825Z,14.70
2018-04-11T09:53:01.574Z,15.63
2018-04-11T09:55:27.333Z,14.00
2018-04-11T09:57:53.073Z,14.90
2018-04-11T10:00:18.823Z,14.80
2018-04-11T10:02:44.588Z,14.63
2018-04-11T10:05:10.337Z,14.23
2018-04-11T10:07:36.097Z,14.40
2018-04-11T10:10:01.829Z,15.07
2018-04-11T10:12:27.588Z,15.17
2018-04-11T10:14:54.121Z,14.32
2018-04-11T10:17:19.872Z,14.87
2018-04-11T10:19:45.609Z,15.40
2018-04-11T10:22:11.356Z,12.53
2018-04-11T10:24:37.125Z,14.20
2018-04-11T10:27:02.877Z,13.67
2018-04-11T10:29:28.612Z,14.57
2018-04-11T10:31:54.344Z,14.33
2018-04-11T10:34:20.094Z,13.77
2018-04-11T10:36:45.820Z,13.87
2018-04-11T10:39:11.560Z,12.70
2018-04-11T10:41:37.321Z,13.03
2018-04-11T10:44:03.073Z,12.17
2018-04-11T10:46:28.819Z,12.43
2018-04-11T10:48:54.588Z,10.00
2018-04-11T10:51:20.324Z,12.70
2018-04-11T10:53:46.089Z,10.40
2018-04-11T10:56:11.825Z,11.80
2018-04-11T10:58:37.574Z,9.77
2018-04-11T11:01:03.312Z,11.43
2018-04-11T11:03:29.052Z,11.13
2018-04-11T11:05:54.792Z,10.07
2018-04-11T11:08:20.528Z,11.37
2018-04-11T11:10:46.252Z,11.50
2018-04-11T11:13:11.993Z,9.57
2018-04-11T11:15:37.761Z,10.90
2018-04-11T11:18:03.526Z,10.03
2018-04-11T11:20:29.281Z,8.83
2018-04-11T11:22:55.135Z,8.23
2018-04-11T11:25:20.893Z,7.90
2018-04-11T11:27:46.698Z,8.10
2018-04-11T11:30:12.444Z,8.60
2018-04-11T11:32:38.204Z,8.23
2018-04-11T11:35:05.073Z,7.43
2018-04-11T11:37:30.846Z,7.40
2018-04-11T11:39:56.607Z,7.47
2018-04-11T11:42:22.359Z,8.57
2018-04-11T11:44:48.109Z,7.83
2018-04-11T11:47:14.128Z,7.70
2018-04-11T11:49:40.063Z,8.32
2018-04-11T11:52:06.466Z,6.77
2018-04-11T11:54:32.617Z,7.78
2018-04-11T11:56:58.848Z,7.50
2018-04-11T11:59:24.629Z,6.85
2018-04-11T12:01:50.377Z,6.23
2018-04-11T12:04:16.160Z,6.27
2018-04-11T12:06:41.905Z,6.40
2018-04-11T12:09:07.669Z,6.87
2018-04-11T12:11:33.701Z,5.90
2018-04-11T12:13:59.441Z,5.97
2018-04-11T12:16:25.176Z,5.70
2018-04-11T12:18:50.917Z,5.93
2018-04-11T12:21:16.660Z,5.70
2018-04-11T12:23:42.407Z,6.43
2018-04-11T12:26:08.188Z,5.70
2018-04-11T12:28:33.954Z,6.17
2018-04-11T12:30:59.703Z,6.90
2018-04-11T12:35:57.896Z,6.65
2018-04-11T12:38:23.645Z,5.67
2018-04-11T12:40:49.399Z,6.00
2018-04-11T12:43:15.166Z,6.47
2018-04-11T12:45:40.936Z,6.10
2018-04-11T12:48:06.681Z,6.10
2018-04-11T12:50:32.448Z,6.60
2018-04-11T12:52:58.175Z,6.23
2018-04-11T12:55:23.917Z,6.30
2018-04-11T12:57:49.676Z,5.87
2018-04-11T13:00:15.433Z,6.33
2018-04-11T13:02:41.165Z,5.90
2018-04-11T13:05:06.923Z,6.10
2018-04-11T13:07:32.649Z,5.33
2018-04-11T13:09:58.385Z,5.67
2018-04-11T13:12:24.134Z,6.13
2018-04-11T13:14:49.881Z,5.70
2018-04-11T13:17:15.597Z,6.20
2018-04-11T13:19:41.328Z,5.63
2018-04-11T13:22:07.070Z,5.67
2018-04-11T13:24:33.325Z,6.23
2018-04-11T13:26:59.055Z,5.20
2018-04-11T13:29:24.801Z,5.43
2018-04-11T13:31:50.528Z,5.63
2018-04-11T13:34:16.270Z,5.43
2018-04-11T13:36:42.006Z,5.87
2018-04-11T13:39:07.753Z,5.07
2018-04-11T13:41:33.488Z,5.60
2018-04-11T13:43:59.256Z,5.47
2018-04-11T13:46:25.013Z,5.57
2018-04-11T13:48:57.933Z,5.33
2018-04-11T13:51:23.680Z,5.78
2018-04-11T13:53:49.563Z,6.30
2018-04-11T13:56:15.402Z,5.23
2018-04-11T13:58:41.139Z,5.93
2018-04-11T14:01:06.952Z,6.43
2018-04-11T14:03:32.678Z,5.80
2018-04-11T14:05:58.503Z,6.13
2018-04-11T14:08:24.290Z,5.60
2018-04-11T14:10:50.131Z,5.70
2018-04-11T14:13:15.878Z,6.83
2018-04-11T14:15:41.880Z,5.70
2018-04-11T14:18:07.620Z,6.10
2018-04-11T14:20:33.362Z,6.13
2018-04-11T14:22:59.099Z,5.60
2018-04-11T14:25:24.963Z,5.87
2018-04-11T14:27:50.660Z,5.57
2018-04-11T14:30:16.406Z,5.77
2018-04-11T14:32:42.144Z,5.60
2018-04-11T14:35:07.885Z,5.97
2018-04-11T14:37:33.608Z,5.67
2018-04-11T14:39:59.358Z,6.10
2018-04-11T14:42:25.164Z,5.67
2018-04-11T14:44:50.925Z,6.13
2018-04-11T14:47:16.671Z,6.30
2018-04-11T14:49:42.412Z,5.83
2018-04-11T14:52:08.145Z,5.57
2018-04-11T14:54:34.084Z,5.17
2018-04-11T14:56:59.838Z,5.90
2018-04-11T14:59:25.757Z,6.00
2018-04-11T15:01:51.497Z,6.07
2018-04-11T15:04:17.232Z,4.70
2018-04-11T15:06:42.976Z,5.60
2018-04-11T15:09:08.714Z,5.33
2018-04-11T15:11:34.475Z,6.30
2018-04-11T15:14:00.205Z,6.60
2018-04-11T15:16:25.942Z,6.90
2018-04-11T15:18:51.668Z,6.13
2018-04-11T15:21:17.417Z,6.20
2018-04-11T15:23:43.164Z,5.97
2018-04-11T15:26:08.918Z,6.30
2018-04-11T15:28:34.644Z,5.97
2018-04-11T15:31:00.395Z,5.90
2018-04-11T15:33:26.136Z,5.70
2018-04-11T15:35:51.893Z,6.63
2018-04-11T15:38:17.633Z,5.90
2018-04-11T15:40:43.404Z,5.43
2018-04-11T15:43:09.144Z,6.50
2018-04-11T15:45:34.917Z,6.57
2018-04-11T15:48:00.661Z,5.67
2018-04-11T15:50:26.404Z,7.40
2018-04-11T15:52:52.150Z,5.43
2018-04-11T15:55:19.416Z,5.80
2018-04-11T15:57:45.199Z,8.38
2018-04-11T16:00:10.956Z,6.90
2018-04-11T16:02:36.693Z,5.67
2018-04-11T16:05:02.461Z,5.97
2018-04-11T16:07:28.224Z,6.90
2018-04-11T16:09:53.960Z,6.57
2018-04-11T16:12:19.704Z,7.27
2018-04-11T16:14:45.439Z,6.90
2018-04-11T16:17:11.523Z,5.73
2018-04-11T16:19:37.252Z,6.12
2018-04-11T16:22:02.997Z,5.87
2018-04-11T16:24:30.773Z,6.67
2018-04-11T16:26:57.901Z,6.70
2018-04-11T16:29:23.664Z,6.70
2018-04-11T16:31:49.417Z,6.73
2018-04-11T16:34:15.191Z,6.93
2018-04-11T16:36:40.941Z,6.33
2018-04-11T16:39:06.676Z,6.40
2018-04-11T16:41:32.434Z,6.37
2018-04-11T16:43:58.161Z,6.23
2018-04-11T16:46:23.917Z,7.20
2018-04-11T16:48:49.649Z,6.77
2018-04-11T16:51:15.389Z,6.27
2018-04-11T16:53:41.124Z,7.07
2018-04-11T16:56:06.867Z,7.27
2018-04-11T16:58:32.615Z,7.07
2018-04-11T17:00:58.362Z,7.00
2018-04-11T17:03:24.119Z,7.43
2018-04-11T17:05:49.885Z,7.17
2018-04-11T17:08:15.628Z,10.10
2018-04-11T17:10:41.377Z,6.33
2018-04-11T17:13:07.142Z,7.23
2018-04-11T17:15:32.887Z,6.93
2018-04-11T17:17:58.629Z,6.90
2018-04-11T17:20:36.758Z,7.10
2018-04-11T17:23:14.904Z,8.18
2018-04-11T17:28:51.932Z,6.50
2018-04-11T17:31:23.644Z,8.55
2018-04-11T17:33:49.369Z,8.20
2018-04-11T17:36:15.135Z,6.53
2018-04-11T17:38:40.872Z,8.30
2018-04-11T17:41:06.609Z,8.47
2018-04-11T17:43:32.352Z,8.00
2018-04-11T17:45:58.083Z,8.10
2018-04-11T17:48:23.816Z,8.60
2018-04-11T17:50:49.552Z,8.33
2018-04-11T17:53:15.284Z,8.67
2018-04-11T17:55:41.016Z,8.67
2018-04-11T17:58:06.746Z,7.33
2018-04-11T18:00:32.493Z,7.97
2018-04-11T18:02:58.232Z,8.87
2018-04-11T18:05:23.965Z,9.90
2018-04-11T18:07:49.700Z,9.17
2018-04-11T18:10:15.437Z,7.97
2018-04-11T18:12:41.193Z,9.10
2018-04-11T18:15:06.939Z,8.73
2018-04-11T18:17:32.677Z,9.30
2018-04-11T18:19:58.436Z,8.80
2018-04-11T18:22:24.173Z,9.40
2018-04-11T18:24:49.900Z,9.67
2018-04-11T18:27:15.649Z,9.43
2018-04-11T18:29:41.372Z,11.00
2018-04-11T18:32:07.112Z,10.00
2018-04-11T18:34:32.868Z,11.70
2018-04-11T18:36:58.617Z,9.87
2018-04-11T18:39:24.364Z,9.63
2018-04-11T18:41:50.096Z,9.97
2018-04-11T18:44:15.845Z,9.97
2018-04-11T18:46:41.595Z,9.60
2018-04-11T18:49:07.357Z,9.30
2018-04-11T18:51:33.100Z,8.13
2018-04-11T18:53:58.859Z,8.70
2018-04-11T18:56:24.604Z,7.83
2018-04-11T18:58:50.361Z,7.43
2018-04-11T19:01:16.117Z,8.20
2018-04-11T19:03:41.884Z,7.90
2018-04-11T19:06:07.618Z,8.10
2018-04-11T19:08:33.381Z,7.73
2018-04-11T19:10:59.128Z,7.63
2018-04-11T19:13:24.910Z,7.57
2018-04-11T19:15:50.613Z,7.67
2018-04-11T19:18:16.384Z,7.23
2018-04-11T19:20:42.158Z,7.20
2018-04-11T19:23:07.903Z,7.33
2018-04-11T19:25:33.648Z,7.13
2018-04-11T19:27:59.389Z,6.23
2018-04-11T19:30:25.130Z,7.10
2018-04-11T19:32:50.883Z,7.23
2018-04-11T19:35:16.620Z,6.53
2018-04-11T19:37:42.366Z,6.20
2018-04-11T19:40:08.091Z,7.03
2018-04-11T19:42:33.851Z,7.43
2018-04-11T19:44:59.601Z,6.33
2018-04-11T19:47:25.367Z,6.67
2018-04-11T19:49:51.130Z,6.37
2018-04-11T19:52:16.861Z,6.53
2018-04-11T19:54:42.609Z,5.37
2018-04-11T19:57:08.329Z,6.10
2018-04-11T19:59:34.085Z,7.30
2018-04-11T20:01:59.830Z,6.30
2018-04-11T20:04:25.591Z,7.27
2018-04-11T20:06:51.331Z,7.10
2018-04-11T20:09:17.083Z,6.37
2018-04-11T20:11:42.825Z,6.13
2018-04-11T20:14:08.560Z,6.30
2018-04-11T20:16:34.320Z,6.27
2018-04-11T20:19:00.073Z,6.10
2018-04-11T20:21:25.821Z,6.30
2018-04-11T20:23:51.566Z,6.63
2018-04-11T20:26:17.302Z,7.00
2018-04-11T20:28:43.042Z,6.13
2018-04-11T20:31:08.773Z,6.23
2018-04-11T20:33:34.509Z,6.30
2018-04-11T20:36:00.301Z,5.97
2018-04-11T20:38:26.005Z,6.67
2018-04-11T20:40:51.726Z,5.80
2018-04-11T20:43:17.469Z,6.83
2018-04-11T20:45:43.200Z,6.37
2018-04-11T20:48:08.955Z,6.27
2018-04-11T20:50:34.665Z,6.87
2018-04-11T20:53:00.392Z,6.20
2018-04-11T20:55:26.135Z,6.13
2018-04-11T20:57:51.861Z,6.40
2018-04-11T21:00:17.598Z,5.70
2018-04-11T21:02:43.326Z,5.70
2018-04-11T21:05:09.069Z,5.77
2018-04-11T21:07:34.822Z,6.47
2018-04-11T21:10:00.576Z,6.13
2018-04-11T21:12:26.318Z,6.30
2018-04-11T21:14:52.047Z,6.53
2018-04-11T21:17:17.768Z,5.47
2018-04-11T21:19:43.525Z,6.60
2018-04-11T21:22:09.257Z,6.37
2018-04-11T21:24:34.992Z,5.90
2018-04-11T21:27:00.717Z,7.33
2018-04-11T21:29:26.453Z,6.80
2018-04-11T21:31:52.176Z,6.93
2018-04-11T21:34:17.927Z,6.07
2018-04-11T21:36:43.656Z,6.63
2018-04-11T21:39:09.385Z,5.80
2018-04-11T21:41:35.117Z,6.57
2018-04-11T21:44:00.872Z,5.70
2018-04-11T21:46:26.706Z,6.80
2018-04-11T21:48:53.471Z,6.57
2018-04-11T21:51:19.216Z,6.30
2018-04-11T21:53:45.413Z,6.77
2018-04-11T21:56:11.179Z,6.40
2018-04-11T21:58:36.901Z,6.43
2018-04-11T22:01:02.651Z,6.00
2018-04-11T22:03:28.386Z,6.57
2018-04-11T22:05:54.112Z,6.30
2018-04-11T22:08:19.832Z,5.50
2018-04-11T22:10:45.568Z,6.33
2018-04-11T22:13:11.308Z,6.73
2018-04-11T22:15:37.102Z,6.67
2018-04-11T22:18:02.849Z,5.93
2018-04-11T22:20:28.596Z,6.53
2018-04-11T22:22:54.313Z,6.53
2018-04-11T22:25:20.048Z,6.17
2018-04-11T22:27:45.793Z,6.13
2018-04-11T22:30:11.525Z,6.30
2018-04-11T22:32:37.252Z,6.13
2018-04-11T22:35:02.998Z,6.13
2018-04-11T22:37:28.726Z,6.07
2018-04-11T22:39:54.469Z,6.53
2018-04-11T22:42:20.241Z,5.63
2018-04-11T22:44:45.973Z,6.80
2018-04-11T22:47:11.722Z,6.03
2018-04-11T22:49:37.452Z,6.90
2018-04-11T22:52:03.196Z,6.50
2018-04-11T22:54:28.957Z,5.70
2018-04-11T22:56:54.700Z,6.07
2018-04-11T22:59:20.448Z,6.70
2018-04-11T23:01:46.172Z,6.00
2018-04-11T23:04:11.901Z,5.80
2018-04-11T23:06:37.637Z,6.47
2018-04-11T23:09:03.385Z,6.47
2018-04-11T23:11:29.125Z,5.47
2018-04-11T23:13:54.881Z,6.20
2018-04-11T23:16:20.653Z,6.20
2018-04-11T23:18:46.404Z,6.27
2018-04-11T23:21:12.147Z,6.03
2018-04-11T23:23:37.894Z,5.97
2018-04-11T23:26:03.624Z,5.80
2018-04-11T23:28:29.350Z,6.17
2018-04-11T23:30:55.085Z,6.70
2018-04-11T23:33:20.819Z,6.73
2018-04-11T23:35:46.552Z,7.20
2018-04-11T23:38:12.300Z,7.30
2018-04-11T23:40:38.038Z,7.57
2018-04-11T23:43:03.785Z,7.37
2018-04-11T23:45:29.535Z,6.57
2018-04-11T23:47:55.274Z,6.67
2018-04-11T23:50:21.019Z,6.67
2018-04-11T23:52:46.737Z,6.80
2018-04-11T23:55:12.479Z,6.67
2018-04-11T23:57:38.208Z,7.03
